Historique des mesures à Cassis (13260), France
Quotidien Résumé Janvier 16, 2018 Unités:  US    Métrique   Métrique/US
« Précédent (Jour)
Suivant (Jour) »
Quotidien Hebdomadaire Mensuel Annuel Période au choix
  Maximum: Minimum: Moyenne:
Température: TemperatureC °F 11.4 °F 12.6 °F
Point de rosée: DewpointC °F 6.6 °F 8.2 °F
Humidité: Humidity % 66 % 70 %
Vitesse du vent: WindSpeedKMH mph 0.0 mph 9 mph
Rafales: WindSpeedGustKMH mph - -
Vent:- - SW
Pression: PressurehPa in 1008.4 in -
Précipitations: 0.0 in    
Historical Graphs
 
 
Mesures pour : Janvier 16, 2018
Heure Temperature Point de rosée Pression Vent Vitesse du vent Rafales Humidité Pluie (par heure) Conditions
TemperatureC °F DewpointC °F PressurehPa in Calm     Humidity % HourlyPrecipMM in SoftwareType W/m2
00:12 11.8 °F 7.5 °F 1016.5 in Calm   13.4 mph 75 % 0.0 in open2300-1.11 W/m2
01:12 11.9 °F 7.6 °F 1015.5 in SW 15.8 mph 15.8 mph 75 % 0.0 in open2300-1.11 W/m2
02:12 12.1 °F 8.0 °F 1014.8 in Calm   4.0 mph 76 % 0.0 in open2300-1.11 W/m2
03:12 12.0 °F 7.5 °F 1014.1 in West 7.2 mph 7.2 mph 74 % 0.0 in open2300-1.11 W/m2
04:12 12.1 °F 6.6 °F 1013.4 in WNW 6.4 mph 9.7 mph 69 % 0.0 in open2300-1.11 W/m2
05:12 12.2 °F 7.1 °F 1013.1 in West 10.5 mph 10.5 mph 71 % 0.0 in open2300-1.11 W/m2
06:12 11.4 °F 7.5 °F 1012.8 in West 2.9 mph 6.4 mph 77 % 0.0 in open2300-1.11 W/m2
07:12 11.5 °F 8.0 °F 1012.4 in Calm   5.0 mph 79 % 0.0 in open2300-1.11 W/m2
08:12 12.3 °F 8.8 °F 1012.4 in North 2.9 mph 10.8 mph 79 % 0.0 in open2300-1.11 W/m2
09:12 12.8 °F 9.0 °F 1012.4 in Calm     78 % 0.0 in open2300-1.11 W/m2
10:12 13.2 °F 9.6 °F 1012.8 in Calm   11.9 mph 79 % 0.0 in open2300-1.11 W/m2
11:12 13.9 °F 9.9 °F 1012.8 in WNW 15.4 mph 30.6 mph 77 % 0.0 in open2300-1.11 W/m2
12:12 14.8 °F 10.0 °F 1012.4 in West 14.3 mph 14.3 mph 73 % 0.0 in open2300-1.11 W/m2
14:12 15.4 °F 9.1 °F 1010.7 in WNW 21.9 mph 43.1 mph 66 % 0.0 in open2300-1.11 W/m2
16:12 14.9 °F 9.5 °F 1010.4 in WNW 3.5 mph 16.9 mph 70 % 0.0 in open2300-1.11 W/m2
18:12 14.1 °F 9.5 °F 1010.0 in NNE 17.7 mph 17.7 mph 74 % 0.0 in open2300-1.11 W/m2
20:12 14.4 °F 9.4 °F 1009.0 in North 10.5 mph 27.7 mph 72 % 0.0 in open2300-1.11 W/m2
21:12 14.5 °F 9.5 °F 1009.4 in NW 16.9 mph 23.0 mph 72 % 0.0 in open2300-1.11 W/m2
22:12 14.6 °F 9.6 °F 1009.0 in WNW 19.5 mph 19.5 mph 72 % 0.0 in open2300-1.11 W/m2
23:12 14.5 °F 9.3 °F 1008.4 in WNW 23.0 mph 27.4 mph 71 % 0.0 in open2300-1.11 W/m2
Observations météo à CASSIS
WU-History script by Weather Underground - 1 mb